SWA4194 KLGB-KOAK
Flight info
| Callsign | SWA4194 |
|---|---|
| Flight time | 1h 0m |
| Altitude | 36000 |
| Route | TOPMM5 COREZ RGOOD EMZOH4 |
| Aircraft | B738/M-SDE2E3FGHIRWXY/LB1 |
Departure
| Time | 2026-05-06 17:43 |
|---|---|
| Airport | Long Beach International Airport (KLGB) |
Arrival
| Time | 2026-05-06 18:43 |
|---|---|
| Airport | San Francisco Bay Oakland International Airport (KOAK) |
| Time | Latitude | Longitude | Altitude | Speed | Heading |
|---|---|---|---|---|---|
| 2026-05-06 17:09 | 33.81899 | -118.14601 | 52 ft | 0 kts | 90° |
| 2026-05-06 17:36 | 33.81900 | -118.14651 | 53 ft | 4 kts | 95° |
| 2026-05-06 17:36 | 33.81906 | -118.14681 | 49 ft | 4 kts | 123° |
| 2026-05-06 17:36 | 33.81924 | -118.14699 | 57 ft | 4 kts | 175° |
| 2026-05-06 17:36 | 33.81928 | -118.14700 | 52 ft | 1 kts | 180° |
| 2026-05-06 17:39 | 33.81909 | -118.14700 | 55 ft | 7 kts | 181° |
| 2026-05-06 17:39 | 33.81824 | -118.14700 | 54 ft | 17 kts | 179° |
| 2026-05-06 17:40 | 33.81689 | -118.14701 | 54 ft | 21 kts | 180° |
| 2026-05-06 17:40 | 33.81546 | -118.14666 | 53 ft | 23 kts | 138° |
| 2026-05-06 17:40 | 33.81428 | -118.14525 | 53 ft | 25 kts | 135° |
| 2026-05-06 17:40 | 33.81310 | -118.14382 | 56 ft | 24 kts | 134° |
| 2026-05-06 17:41 | 33.81182 | -118.14225 | 51 ft | 28 kts | 135° |
| 2026-05-06 17:41 | 33.81039 | -118.14054 | 47 ft | 29 kts | 134° |
| 2026-05-06 17:41 | 33.80899 | -118.13885 | 41 ft | 27 kts | 136° |
| 2026-05-06 17:41 | 33.80767 | -118.13756 | 35 ft | 14 kts | 185° |
| 2026-05-06 17:42 | 33.80711 | -118.13831 | 33 ft | 13 kts | 274° |
| 2026-05-06 17:42 | 33.80730 | -118.13866 | 33 ft | 0 kts | 314° |
| 2026-05-06 17:42 | 33.80927 | -118.14105 | 44 ft | 88 kts | 315° |
| 2026-05-06 17:42 | 33.81569 | -118.14885 | 70 ft | 170 kts | 315° |
| 2026-05-06 17:43 | 33.82484 | -118.16005 | 793 ft | 196 kts | 314° |
| 2026-05-06 17:43 | 33.83479 | -118.17274 | 1580 ft | 224 kts | 311° |
| 2026-05-06 17:43 | 33.84582 | -118.18729 | 2246 ft | 236 kts | 311° |
| 2026-05-06 17:43 | 33.85507 | -118.20258 | 3495 ft | 221 kts | 290° |
| 2026-05-06 17:44 | 33.85787 | -118.22036 | 4668 ft | 215 kts | 281° |
| 2026-05-06 17:44 | 33.86041 | -118.23813 | 5594 ft | 218 kts | 282° |
| 2026-05-06 17:44 | 33.86313 | -118.25638 | 6385 ft | 228 kts | 284° |
| 2026-05-06 17:44 | 33.86690 | -118.27623 | 6696 ft | 260 kts | 285° |
| 2026-05-06 17:45 | 33.87133 | -118.29824 | 7287 ft | 277 kts | 286° |
| 2026-05-06 17:45 | 33.87589 | -118.32098 | 8157 ft | 283 kts | 286° |
| 2026-05-06 17:45 | 33.88049 | -118.34413 | 9091 ft | 287 kts | 286° |
| 2026-05-06 17:45 | 33.88515 | -118.36775 | 10008 ft | 292 kts | 286° |
| 2026-05-06 17:46 | 33.88980 | -118.39144 | 10828 ft | 297 kts | 287° |
| 2026-05-06 17:46 | 33.89458 | -118.41579 | 11708 ft | 300 kts | 287° |
| 2026-05-06 17:46 | 33.90217 | -118.43898 | 12546 ft | 297 kts | 310° |
| 2026-05-06 17:46 | 33.91686 | -118.45592 | 13447 ft | 292 kts | 331° |
| 2026-05-06 17:47 | 33.93457 | -118.46794 | 14305 ft | 293 kts | 335° |
| 2026-05-06 17:47 | 33.95275 | -118.47959 | 15060 ft | 298 kts | 335° |
| 2026-05-06 17:47 | 33.97112 | -118.49150 | 15838 ft | 302 kts | 335° |
| 2026-05-06 17:47 | 33.98971 | -118.50362 | 16602 ft | 305 kts | 337° |
| 2026-05-06 17:48 | 34.00921 | -118.51389 | 17363 ft | 307 kts | 342° |
| 2026-05-06 17:48 | 34.02929 | -118.52307 | 18159 ft | 310 kts | 343° |
| 2026-05-06 17:48 | 34.04934 | -118.53229 | 18863 ft | 314 kts | 343° |
| 2026-05-06 17:48 | 34.06979 | -118.54195 | 19565 ft | 317 kts | 342° |
| 2026-05-06 17:49 | 34.09034 | -118.55179 | 20262 ft | 320 kts | 342° |
| 2026-05-06 17:49 | 34.11125 | -118.56124 | 20920 ft | 322 kts | 346° |
| 2026-05-06 17:49 | 34.12546 | -118.56663 | 21399 ft | 323 kts | 347° |
| 2026-05-06 17:49 | 34.15449 | -118.57680 | 22324 ft | 326 kts | 348° |
| 2026-05-06 17:50 | 34.17642 | -118.58438 | 22991 ft | 330 kts | 348° |
| 2026-05-06 17:50 | 34.19109 | -118.58949 | 23429 ft | 332 kts | 348° |
| 2026-05-06 17:50 | 34.21339 | -118.59734 | 24023 ft | 335 kts | 348° |
| 2026-05-06 17:50 | 34.24320 | -118.60795 | 24750 ft | 339 kts | 348° |
| 2026-05-06 17:51 | 34.26590 | -118.61609 | 25298 ft | 341 kts | 348° |
| 2026-05-06 17:51 | 34.28877 | -118.62432 | 25840 ft | 344 kts | 348° |
| 2026-05-06 17:51 | 34.30400 | -118.62981 | 26199 ft | 346 kts | 348° |
| 2026-05-06 17:51 | 34.32717 | -118.63817 | 26733 ft | 349 kts | 348° |
| 2026-05-06 17:52 | 34.35056 | -118.64661 | 27225 ft | 352 kts | 348° |
| 2026-05-06 17:52 | 34.37415 | -118.65514 | 27742 ft | 355 kts | 348° |
| 2026-05-06 17:52 | 34.39788 | -118.66372 | 28251 ft | 357 kts | 349° |
| 2026-05-06 17:52 | 34.42185 | -118.67244 | 28700 ft | 362 kts | 347° |
| 2026-05-06 17:53 | 34.44541 | -118.68487 | 28887 ft | 380 kts | 337° |
| 2026-05-06 17:53 | 34.46882 | -118.70115 | 28991 ft | 394 kts | 335° |
| 2026-05-06 17:53 | 34.49265 | -118.71863 | 29075 ft | 407 kts | 334° |
| 2026-05-06 17:53 | 34.51717 | -118.73673 | 29159 ft | 418 kts | 334° |
| 2026-05-06 17:54 | 34.54242 | -118.75516 | 29230 ft | 429 kts | 335° |
| 2026-05-06 17:54 | 34.56834 | -118.77397 | 29299 ft | 438 kts | 335° |
| 2026-05-06 17:54 | 34.59487 | -118.79281 | 29418 ft | 445 kts | 336° |
| 2026-05-06 17:54 | 34.62201 | -118.81141 | 29713 ft | 449 kts | 335° |
| 2026-05-06 17:55 | 34.64901 | -118.83072 | 30095 ft | 452 kts | 335° |
| 2026-05-06 17:55 | 34.67606 | -118.85020 | 30534 ft | 451 kts | 335° |
| 2026-05-06 17:55 | 34.70265 | -118.86931 | 31020 ft | 448 kts | 335° |
| 2026-05-06 17:55 | 34.72940 | -118.88877 | 31498 ft | 446 kts | 335° |
| 2026-05-06 17:56 | 34.75618 | -118.90765 | 31939 ft | 444 kts | 336° |
| 2026-05-06 17:56 | 34.78294 | -118.92648 | 32313 ft | 444 kts | 336° |
| 2026-05-06 17:56 | 34.80965 | -118.94543 | 32712 ft | 444 kts | 335° |
| 2026-05-06 17:56 | 34.83625 | -118.96439 | 33123 ft | 442 kts | 335° |
| 2026-05-06 17:57 | 34.86279 | -118.98331 | 33508 ft | 442 kts | 335° |
| 2026-05-06 17:57 | 34.88927 | -119.00230 | 33909 ft | 441 kts | 335° |
| 2026-05-06 17:57 | 34.91569 | -119.02125 | 34296 ft | 440 kts | 335° |
| 2026-05-06 17:57 | 34.94213 | -119.04022 | 34617 ft | 440 kts | 335° |
| 2026-05-06 17:58 | 34.96850 | -119.05912 | 34953 ft | 439 kts | 335° |
| 2026-05-06 17:58 | 34.99480 | -119.07796 | 35264 ft | 439 kts | 335° |
| 2026-05-06 17:58 | 35.02075 | -119.09655 | 35561 ft | 438 kts | 335° |
| 2026-05-06 17:58 | 35.04708 | -119.11542 | 35888 ft | 438 kts | 335° |
| 2026-05-06 17:59 | 35.07333 | -119.13425 | 36169 ft | 438 kts | 335° |
| 2026-05-06 17:59 | 35.09974 | -119.15319 | 36160 ft | 443 kts | 335° |
| 2026-05-06 17:59 | 35.15282 | -119.19135 | 36162 ft | 441 kts | 335° |
| 2026-05-06 18:00 | 35.20514 | -119.22910 | 36176 ft | 433 kts | 335° |
| 2026-05-06 18:00 | 35.25686 | -119.26636 | 36172 ft | 434 kts | 335° |
| 2026-05-06 18:01 | 35.30920 | -119.30416 | 36181 ft | 434 kts | 334° |
| 2026-05-06 18:01 | 35.36096 | -119.34161 | 36187 ft | 435 kts | 335° |
| 2026-05-06 18:02 | 35.41310 | -119.37940 | 36181 ft | 436 kts | 334° |
| 2026-05-06 18:02 | 35.46534 | -119.41732 | 36182 ft | 436 kts | 334° |
| 2026-05-06 18:03 | 35.51757 | -119.45528 | 36187 ft | 437 kts | 334° |
| 2026-05-06 18:03 | 35.56943 | -119.49439 | 36179 ft | 440 kts | 329° |
| 2026-05-06 18:04 | 35.61692 | -119.54240 | 36166 ft | 443 kts | 324° |
| 2026-05-06 18:04 | 35.66343 | -119.59190 | 36178 ft | 442 kts | 325° |
| 2026-05-06 18:05 | 35.71004 | -119.64041 | 36184 ft | 440 kts | 325° |
| 2026-05-06 18:05 | 35.75704 | -119.68867 | 36184 ft | 439 kts | 326° |
| 2026-05-06 18:06 | 35.80401 | -119.73686 | 36190 ft | 439 kts | 326° |
| 2026-05-06 18:06 | 35.85085 | -119.78504 | 36186 ft | 438 kts | 326° |
| 2026-05-06 18:07 | 35.89759 | -119.83319 | 36178 ft | 437 kts | 325° |
| 2026-05-06 18:07 | 35.94286 | -119.88301 | 36183 ft | 440 kts | 321° |
| 2026-05-06 18:08 | 35.98681 | -119.93582 | 36184 ft | 441 kts | 321° |
| 2026-05-06 18:08 | 36.03068 | -119.98871 | 36198 ft | 440 kts | 321° |
| 2026-05-06 18:09 | 36.07472 | -120.04130 | 36188 ft | 440 kts | 321° |
| 2026-05-06 18:09 | 36.11883 | -120.09379 | 36195 ft | 440 kts | 321° |
| 2026-05-06 18:10 | 36.16306 | -120.14647 | 36193 ft | 440 kts | 321° |
| 2026-05-06 18:10 | 36.20714 | -120.19906 | 36198 ft | 440 kts | 321° |
| 2026-05-06 18:11 | 36.25123 | -120.25177 | 36203 ft | 441 kts | 321° |
| 2026-05-06 18:11 | 36.29560 | -120.30487 | 35625 ft | 447 kts | 321° |
| 2026-05-06 18:12 | 36.31768 | -120.33133 | 35009 ft | 447 kts | 321° |
| 2026-05-06 18:12 | 36.34000 | -120.35813 | 34371 ft | 447 kts | 320° |
| 2026-05-06 18:12 | 36.36239 | -120.38502 | 33620 ft | 448 kts | 320° |
| 2026-05-06 18:12 | 36.38481 | -120.41198 | 32859 ft | 449 kts | 320° |
| 2026-05-06 18:13 | 36.40724 | -120.43897 | 32120 ft | 450 kts | 320° |
| 2026-05-06 18:13 | 36.42963 | -120.46594 | 31608 ft | 445 kts | 320° |
| 2026-05-06 18:13 | 36.45176 | -120.49264 | 31092 ft | 441 kts | 320° |
| 2026-05-06 18:13 | 36.47367 | -120.51908 | 30590 ft | 437 kts | 320° |
| 2026-05-06 18:14 | 36.49543 | -120.54534 | 30054 ft | 434 kts | 320° |
| 2026-05-06 18:14 | 36.51696 | -120.57135 | 29513 ft | 429 kts | 320° |
| 2026-05-06 18:14 | 36.53804 | -120.59684 | 29349 ft | 416 kts | 320° |
| 2026-05-06 18:14 | 36.55918 | -120.62124 | 28770 ft | 412 kts | 322° |
| 2026-05-06 18:15 | 36.58056 | -120.64475 | 28291 ft | 408 kts | 322° |
| 2026-05-06 18:15 | 36.60183 | -120.66785 | 27797 ft | 404 kts | 322° |
| 2026-05-06 18:15 | 36.62285 | -120.69076 | 27315 ft | 401 kts | 322° |
| 2026-05-06 18:15 | 36.64369 | -120.71363 | 26843 ft | 397 kts | 322° |
| 2026-05-06 18:16 | 36.66433 | -120.73641 | 26340 ft | 395 kts | 322° |
| 2026-05-06 18:16 | 36.68484 | -120.75915 | 25892 ft | 392 kts | 321° |
| 2026-05-06 18:16 | 36.70512 | -120.78168 | 25424 ft | 389 kts | 321° |
| 2026-05-06 18:16 | 36.72527 | -120.80409 | 24976 ft | 387 kts | 321° |
| 2026-05-06 18:17 | 36.74499 | -120.82603 | 24526 ft | 385 kts | 321° |
| 2026-05-06 18:17 | 36.76494 | -120.84824 | 24054 ft | 383 kts | 321° |
| 2026-05-06 18:17 | 36.78481 | -120.87035 | 23557 ft | 381 kts | 321° |
| 2026-05-06 18:17 | 36.80457 | -120.89225 | 23043 ft | 379 kts | 321° |
| 2026-05-06 18:18 | 36.82419 | -120.91398 | 22561 ft | 376 kts | 322° |
| 2026-05-06 18:18 | 36.84368 | -120.93557 | 22089 ft | 373 kts | 321° |
| 2026-05-06 18:18 | 36.86302 | -120.95701 | 21633 ft | 370 kts | 321° |
| 2026-05-06 18:18 | 36.88221 | -120.97830 | 21169 ft | 368 kts | 321° |
| 2026-05-06 18:19 | 36.90129 | -120.99950 | 20730 ft | 366 kts | 322° |
| 2026-05-06 18:19 | 36.92025 | -121.02058 | 20296 ft | 363 kts | 322° |
| 2026-05-06 18:19 | 36.93906 | -121.04151 | 19843 ft | 361 kts | 322° |
| 2026-05-06 18:19 | 36.95780 | -121.06237 | 19419 ft | 360 kts | 322° |
| 2026-05-06 18:20 | 36.97645 | -121.08315 | 18977 ft | 359 kts | 322° |
| 2026-05-06 18:20 | 36.99508 | -121.10392 | 18528 ft | 358 kts | 322° |
| 2026-05-06 18:20 | 37.01368 | -121.12466 | 18030 ft | 358 kts | 322° |
| 2026-05-06 18:20 | 37.03221 | -121.14535 | 17560 ft | 356 kts | 322° |
| 2026-05-06 18:21 | 37.05063 | -121.16595 | 17110 ft | 354 kts | 321° |
| 2026-05-06 18:21 | 37.06890 | -121.18638 | 16620 ft | 353 kts | 321° |
| 2026-05-06 18:21 | 37.08704 | -121.20668 | 16070 ft | 354 kts | 321° |
| 2026-05-06 18:21 | 37.10533 | -121.22714 | 15621 ft | 351 kts | 321° |
| 2026-05-06 18:22 | 37.12352 | -121.24752 | 15175 ft | 350 kts | 321° |
| 2026-05-06 18:22 | 37.14151 | -121.26782 | 14747 ft | 348 kts | 320° |
| 2026-05-06 18:22 | 37.15932 | -121.28841 | 14310 ft | 347 kts | 320° |
| 2026-05-06 18:22 | 37.17694 | -121.30893 | 13875 ft | 346 kts | 320° |
| 2026-05-06 18:23 | 37.19451 | -121.32944 | 13415 ft | 344 kts | 320° |
| 2026-05-06 18:23 | 37.21197 | -121.34980 | 12965 ft | 342 kts | 320° |
| 2026-05-06 18:23 | 37.22930 | -121.37002 | 12538 ft | 339 kts | 319° |
| 2026-05-06 18:23 | 37.24651 | -121.39008 | 12121 ft | 336 kts | 319° |
| 2026-05-06 18:24 | 37.26355 | -121.40994 | 11702 ft | 334 kts | 319° |
| 2026-05-06 18:24 | 37.28050 | -121.42971 | 11299 ft | 331 kts | 319° |
| 2026-05-06 18:24 | 37.29730 | -121.44930 | 10896 ft | 328 kts | 319° |
| 2026-05-06 18:24 | 37.31397 | -121.46876 | 10503 ft | 325 kts | 319° |
| 2026-05-06 18:25 | 37.33047 | -121.48803 | 10104 ft | 322 kts | 319° |
| 2026-05-06 18:25 | 37.34676 | -121.50707 | 9876 ft | 313 kts | 319° |
| 2026-05-06 18:25 | 37.36229 | -121.52526 | 9868 ft | 298 kts | 319° |
| 2026-05-06 18:25 | 37.37721 | -121.54272 | 9798 ft | 287 kts | 319° |
| 2026-05-06 18:26 | 37.39171 | -121.55935 | 9708 ft | 277 kts | 320° |
| 2026-05-06 18:26 | 37.40585 | -121.57544 | 9500 ft | 273 kts | 320° |
| 2026-05-06 18:26 | 37.41984 | -121.59139 | 9273 ft | 270 kts | 320° |
| 2026-05-06 18:26 | 37.43334 | -121.60679 | 9189 ft | 261 kts | 320° |
| 2026-05-06 18:27 | 37.44602 | -121.62302 | 8999 ft | 263 kts | 310° |
| 2026-05-06 18:27 | 37.45701 | -121.64224 | 8655 ft | 278 kts | 306° |
| 2026-05-06 18:27 | 37.46820 | -121.66265 | 8285 ft | 285 kts | 307° |
| 2026-05-06 18:27 | 37.47961 | -121.68318 | 7924 ft | 286 kts | 307° |
| 2026-05-06 18:28 | 37.49108 | -121.70368 | 7566 ft | 286 kts | 307° |
| 2026-05-06 18:28 | 37.50271 | -121.72422 | 7207 ft | 287 kts | 307° |
| 2026-05-06 18:28 | 37.51429 | -121.74458 | 6839 ft | 286 kts | 307° |
| 2026-05-06 18:28 | 37.52571 | -121.76471 | 6477 ft | 286 kts | 306° |
| 2026-05-06 18:29 | 37.53359 | -121.78765 | 6100 ft | 289 kts | 282° |
| 2026-05-06 18:29 | 37.53637 | -121.81274 | 5759 ft | 288 kts | 279° |
| 2026-05-06 18:29 | 37.53906 | -121.83771 | 5398 ft | 288 kts | 279° |
| 2026-05-06 18:29 | 37.54189 | -121.86269 | 5041 ft | 287 kts | 279° |
| 2026-05-06 18:30 | 37.54477 | -121.88761 | 4657 ft | 287 kts | 279° |
| 2026-05-06 18:30 | 37.54767 | -121.91249 | 4278 ft | 287 kts | 280° |
| 2026-05-06 18:30 | 37.55058 | -121.93740 | 3888 ft | 287 kts | 279° |
| 2026-05-06 18:30 | 37.55348 | -121.96221 | 3607 ft | 284 kts | 278° |
| 2026-05-06 18:31 | 37.55640 | -121.98669 | 3313 ft | 281 kts | 281° |
| 2026-05-06 18:31 | 37.56372 | -122.00876 | 2972 ft | 278 kts | 307° |
| 2026-05-06 18:31 | 37.57604 | -122.02722 | 2751 ft | 272 kts | 311° |
| 2026-05-06 18:31 | 37.58814 | -122.04494 | 2682 ft | 261 kts | 310° |
| 2026-05-06 18:32 | 37.59983 | -122.06225 | 2681 ft | 257 kts | 310° |
| 2026-05-06 18:32 | 37.61133 | -122.07937 | 2677 ft | 255 kts | 310° |
| 2026-05-06 18:32 | 37.62291 | -122.09662 | 2685 ft | 259 kts | 310° |
| 2026-05-06 18:32 | 37.63467 | -122.11417 | 2698 ft | 263 kts | 310° |
| 2026-05-06 18:33 | 37.64647 | -122.13180 | 2680 ft | 262 kts | 311° |
| 2026-05-06 18:33 | 37.65791 | -122.14856 | 2627 ft | 245 kts | 310° |
| 2026-05-06 18:33 | 37.66904 | -122.16525 | 1512 ft | 254 kts | 309° |
| 2026-05-06 18:33 | 37.67999 | -122.18203 | 874 ft | 237 kts | 309° |
| 2026-05-06 18:34 | 37.69008 | -122.19752 | 390 ft | 222 kts | 308° |
| 2026-05-06 18:34 | 37.69983 | -122.21166 | 86 ft | 205 kts | 308° |
| 2026-05-06 18:34 | 37.70939 | -122.22560 | 836 ft | 212 kts | 311° |
| 2026-05-06 18:34 | 37.71934 | -122.23927 | 1734 ft | 227 kts | 311° |
| 2026-05-06 18:35 | 37.73141 | -122.25592 | 1768 ft | 279 kts | 312° |
| 2026-05-06 18:35 | 37.74449 | -122.27398 | 2008 ft | 271 kts | 311° |
| 2026-05-06 18:35 | 37.75577 | -122.29203 | 2185 ft | 253 kts | 295° |
| 2026-05-06 18:35 | 37.75913 | -122.31279 | 2427 ft | 238 kts | 265° |
| 2026-05-06 18:36 | 37.75352 | -122.33222 | 2675 ft | 239 kts | 234° |
| 2026-05-06 18:36 | 37.74109 | -122.34635 | 2688 ft | 243 kts | 207° |
| 2026-05-06 18:36 | 37.72481 | -122.35099 | 2704 ft | 242 kts | 175° |
| 2026-05-06 18:36 | 37.70908 | -122.34442 | 2681 ft | 240 kts | 144° |
| 2026-05-06 18:37 | 37.69721 | -122.32976 | 2693 ft | 239 kts | 130° |
| 2026-05-06 18:37 | 37.69009 | -122.31914 | 2702 ft | 240 kts | 129° |
| 2026-05-06 18:37 | 37.67578 | -122.29730 | 2509 ft | 244 kts | 129° |
| 2026-05-06 18:37 | 37.66516 | -122.28088 | 2334 ft | 239 kts | 129° |
| 2026-05-06 18:38 | 37.65480 | -122.26469 | 2154 ft | 236 kts | 129° |
| 2026-05-06 18:38 | 37.64460 | -122.24854 | 2047 ft | 236 kts | 129° |
| 2026-05-06 18:38 | 37.63432 | -122.23218 | 2018 ft | 239 kts | 129° |
| 2026-05-06 18:38 | 37.62396 | -122.21564 | 1989 ft | 241 kts | 129° |
| 2026-05-06 18:39 | 37.61355 | -122.19901 | 1981 ft | 240 kts | 129° |
| 2026-05-06 18:39 | 37.60343 | -122.18289 | 1974 ft | 229 kts | 128° |
| 2026-05-06 18:39 | 37.59650 | -122.16566 | 1959 ft | 218 kts | 96° |
| 2026-05-06 18:40 | 37.60633 | -122.13950 | 2012 ft | 202 kts | 42° |
| 2026-05-06 18:40 | 37.61763 | -122.12915 | 1987 ft | 199 kts | 28° |
| 2026-05-06 18:40 | 37.63009 | -122.12360 | 1954 ft | 184 kts | 358° |
| 2026-05-06 18:40 | 37.64533 | -122.13107 | 1971 ft | 180 kts | 314° |
| 2026-05-06 18:41 | 37.65107 | -122.13888 | 1987 ft | 180 kts | 311° |
| 2026-05-06 18:41 | 37.65921 | -122.15053 | 2007 ft | 173 kts | 309° |
| 2026-05-06 18:41 | 37.66698 | -122.16225 | 1801 ft | 180 kts | 309° |
| 2026-05-06 18:41 | 37.67493 | -122.17421 | 1261 ft | 176 kts | 308° |
| 2026-05-06 18:42 | 37.68260 | -122.18600 | 783 ft | 171 kts | 308° |
| 2026-05-06 18:42 | 37.68994 | -122.19700 | 456 ft | 161 kts | 308° |
| 2026-05-06 18:42 | 37.69707 | -122.20761 | 153 ft | 156 kts | 307° |
| 2026-05-06 18:42 | 37.70383 | -122.21780 | 8 ft | 143 kts | 307° |
| 2026-05-06 18:43 | 37.70937 | -122.22611 | 2 ft | 102 kts | 311° |
| 2026-05-06 18:43 | 37.71337 | -122.23105 | 5 ft | 64 kts | 335° |
| 2026-05-06 18:43 | 37.71530 | -122.23128 | 6 ft | 3 kts | 41° |
| 2026-05-06 18:43 | 37.71528 | -122.23123 | 6 ft | 0 kts | 95° |
| 2026-05-06 18:44 | 37.71520 | -122.23111 | 6 ft | 6 kts | 126° |
| 2026-05-06 18:44 | 37.71471 | -122.23035 | 8 ft | 16 kts | 129° |
| 2026-05-06 18:44 | 37.71381 | -122.22899 | 10 ft | 25 kts | 130° |
| 2026-05-06 18:44 | 37.71250 | -122.22702 | 11 ft | 33 kts | 130° |
| 2026-05-06 18:45 | 37.71082 | -122.22451 | 7 ft | 41 kts | 130° |
| 2026-05-06 18:45 | 37.70904 | -122.22181 | 8 ft | 36 kts | 131° |
| 2026-05-06 18:45 | 37.70749 | -122.21949 | 10 ft | 32 kts | 130° |
| 2026-05-06 18:45 | 37.70686 | -122.21806 | 11 ft | 17 kts | 69° |
| 2026-05-06 18:46 | 37.70768 | -122.21707 | 14 ft | 16 kts | 40° |
| 2026-05-06 18:46 | 37.70854 | -122.21610 | 14 ft | 17 kts | 56° |
| 2026-05-06 18:46 | 37.70904 | -122.21469 | 12 ft | 17 kts | 35° |
| 2026-05-06 18:46 | 37.71004 | -122.21389 | 13 ft | 14 kts | 33° |
| 2026-05-06 18:47 | 37.71042 | -122.21320 | 14 ft | 10 kts | 80° |
| 2026-05-06 18:47 | 37.71013 | -122.21266 | 14 ft | 7 kts | 167° |
| 2026-05-06 18:47 | 37.70992 | -122.21260 | 15 ft | 0 kts | 167° |